sensor_id;sensor_type;location;lat;lon;timestamp;P1;durP1;ratioP1;P2;durP2;ratioP2
9900;SDS011;4989;48.772;9.154;2023-06-14T00:01:56;232.60;;;220.87;;
9900;SDS011;4989;48.772;9.154;2023-06-14T00:06:58;267.77;;;254.17;;
9900;SDS011;4989;48.772;9.154;2023-06-14T00:12:01;313.73;;;297.03;;
9900;SDS011;4989;48.772;9.154;2023-06-14T00:17:05;272.20;;;258.27;;
9900;SDS011;4989;48.772;9.154;2023-06-14T00:22:08;304.53;;;288.43;;
9900;SDS011;4989;48.772;9.154;2023-06-14T00:27:11;254.63;;;241.93;;
9900;SDS011;4989;48.772;9.154;2023-06-14T00:32:13;228.50;;;217.07;;
9900;SDS011;4989;48.772;9.154;2023-06-14T00:37:16;191.87;;;182.47;;
9900;SDS011;4989;48.772;9.154;2023-06-14T00:42:24;209.13;;;198.83;;
9900;SDS011;4989;48.772;9.154;2023-06-14T00:47:28;175.00;;;166.87;;
9900;SDS011;4989;48.772;9.154;2023-06-14T00:52:30;354.53;;;334.83;;
9900;SDS011;4989;48.772;9.154;2023-06-14T00:57:34;447.23;;;420.63;;
9900;SDS011;4989;48.772;9.154;2023-06-14T01:02:40;386.73;;;364.50;;
9900;SDS011;4989;48.772;9.154;2023-06-14T01:07:46;409.33;;;385.23;;
9900;SDS011;4989;48.772;9.154;2023-06-14T01:18:19;430.33;;;404.50;;
9900;SDS011;4989;48.772;9.154;2023-06-14T01:23:23;402.63;;;379.00;;
9900;SDS011;4989;48.772;9.154;2023-06-14T01:28:26;364.57;;;344.63;;
9900;SDS011;4989;48.772;9.154;2023-06-14T01:33:33;301.33;;;286.03;;
9900;SDS011;4989;48.772;9.154;2023-06-14T01:38:38;304.93;;;289.37;;
9900;SDS011;4989;48.772;9.154;2023-06-14T01:43:43;305.77;;;289.77;;
9900;SDS011;4989;48.772;9.154;2023-06-14T01:48:48;407.80;;;383.37;;
9900;SDS011;4989;48.772;9.154;2023-06-14T01:53:50;364.80;;;344.37;;
9900;SDS011;4989;48.772;9.154;2023-06-14T01:58:53;394.23;;;371.37;;
9900;SDS011;4989;48.772;9.154;2023-06-14T02:03:55;472.07;;;443.70;;
9900;SDS011;4989;48.772;9.154;2023-06-14T02:08:57;427.23;;;402.87;;
9900;SDS011;4989;48.772;9.154;2023-06-14T02:14:02;443.60;;;417.47;;
9900;SDS011;4989;48.772;9.154;2023-06-14T02:19:04;431.90;;;406.83;;
9900;SDS011;4989;48.772;9.154;2023-06-14T02:24:07;416.33;;;392.30;;
9900;SDS011;4989;48.772;9.154;2023-06-14T02:29:09;401.33;;;378.33;;
9900;SDS011;4989;48.772;9.154;2023-06-14T02:34:14;341.90;;;323.40;;
9900;SDS011;4989;48.772;9.154;2023-06-14T02:39:21;317.70;;;300.50;;
9900;SDS011;4989;48.772;9.154;2023-06-14T02:44:25;355.13;;;335.87;;
9900;SDS011;4989;48.772;9.154;2023-06-14T02:49:29;360.47;;;341.23;;
9900;SDS011;4989;48.772;9.154;2023-06-14T02:54:31;351.23;;;332.60;;
9900;SDS011;4989;48.772;9.154;2023-06-14T02:59:33;370.93;;;350.53;;
9900;SDS011;4989;48.772;9.154;2023-06-14T03:04:38;346.57;;;328.33;;
9900;SDS011;4989;48.772;9.154;2023-06-14T03:09:46;331.00;;;313.50;;
9900;SDS011;4989;48.772;9.154;2023-06-14T03:14:50;339.90;;;321.43;;
9900;SDS011;4989;48.772;9.154;2023-06-14T03:19:56;336.87;;;319.37;;
9900;SDS011;4989;48.772;9.154;2023-06-14T03:24:59;302.00;;;286.80;;
9900;SDS011;4989;48.772;9.154;2023-06-14T03:30:05;379.23;;;358.60;;
9900;SDS011;4989;48.772;9.154;2023-06-14T03:35:10;362.40;;;342.30;;
9900;SDS011;4989;48.772;9.154;2023-06-14T03:40:20;356.50;;;336.80;;
9900;SDS011;4989;48.772;9.154;2023-06-14T03:45:31;308.23;;;291.87;;
9900;SDS011;4989;48.772;9.154;2023-06-14T03:50:34;362.17;;;342.73;;
9900;SDS011;4989;48.772;9.154;2023-06-14T03:55:40;361.40;;;341.57;;
9900;SDS011;4989;48.772;9.154;2023-06-14T04:00:46;333.33;;;314.83;;
9900;SDS011;4989;48.772;9.154;2023-06-14T04:05:49;329.23;;;311.43;;
9900;SDS011;4989;48.772;9.154;2023-06-14T04:10:52;328.50;;;310.30;;
9900;SDS011;4989;48.772;9.154;2023-06-14T04:15:55;450.50;;;423.77;;
9900;SDS011;4989;48.772;9.154;2023-06-14T04:21:04;443.87;;;417.87;;
9900;SDS011;4989;48.772;9.154;2023-06-14T04:26:06;488.80;;;459.47;;
9900;SDS011;4989;48.772;9.154;2023-06-14T04:31:09;438.00;;;412.30;;
9900;SDS011;4989;48.772;9.154;2023-06-14T04:36:12;448.90;;;421.93;;
9900;SDS011;4989;48.772;9.154;2023-06-14T04:41:15;441.97;;;415.43;;
9900;SDS011;4989;48.772;9.154;2023-06-14T04:46:17;426.37;;;401.47;;
9900;SDS011;4989;48.772;9.154;2023-06-14T04:51:20;391.37;;;369.07;;
9900;SDS011;4989;48.772;9.154;2023-06-14T04:56:24;411.93;;;387.93;;
9900;SDS011;4989;48.772;9.154;2023-06-14T05:01:27;375.67;;;355.13;;
9900;SDS011;4989;48.772;9.154;2023-06-14T05:06:30;412.23;;;388.53;;
9900;SDS011;4989;48.772;9.154;2023-06-14T05:11:32;406.83;;;383.57;;
9900;SDS011;4989;48.772;9.154;2023-06-14T05:16:35;402.70;;;379.93;;
9900;SDS011;4989;48.772;9.154;2023-06-14T05:21:38;415.60;;;391.73;;
9900;SDS011;4989;48.772;9.154;2023-06-14T05:26:44;379.80;;;358.37;;
9900;SDS011;4989;48.772;9.154;2023-06-14T05:31:46;361.67;;;341.63;;
9900;SDS011;4989;48.772;9.154;2023-06-14T05:36:48;364.53;;;344.33;;
9900;SDS011;4989;48.772;9.154;2023-06-14T05:41:50;360.90;;;340.60;;
9900;SDS011;4989;48.772;9.154;2023-06-14T05:46:52;332.57;;;314.30;;
9900;SDS011;4989;48.772;9.154;2023-06-14T05:51:55;354.00;;;334.40;;
9900;SDS011;4989;48.772;9.154;2023-06-14T05:56:57;323.93;;;307.30;;
9900;SDS011;4989;48.772;9.154;2023-06-14T06:02:03;341.27;;;323.40;;
9900;SDS011;4989;48.772;9.154;2023-06-14T06:07:05;317.33;;;301.20;;
9900;SDS011;4989;48.772;9.154;2023-06-14T06:12:08;299.50;;;284.50;;
9900;SDS011;4989;48.772;9.154;2023-06-14T06:17:10;292.47;;;277.63;;
9900;SDS011;4989;48.772;9.154;2023-06-14T06:22:13;295.70;;;280.50;;
9900;SDS011;4989;48.772;9.154;2023-06-14T06:27:15;278.13;;;263.97;;
9900;SDS011;4989;48.772;9.154;2023-06-14T06:32:17;274.77;;;260.90;;
9900;SDS011;4989;48.772;9.154;2023-06-14T06:37:19;271.07;;;257.40;;
9900;SDS011;4989;48.772;9.154;2023-06-14T06:42:22;255.97;;;242.90;;
9900;SDS011;4989;48.772;9.154;2023-06-14T06:47:25;251.37;;;238.67;;
9900;SDS011;4989;48.772;9.154;2023-06-14T06:52:27;250.37;;;238.30;;
9900;SDS011;4989;48.772;9.154;2023-06-14T06:57:30;247.03;;;235.03;;
9900;SDS011;4989;48.772;9.154;2023-06-14T07:02:33;251.53;;;239.27;;
9900;SDS011;4989;48.772;9.154;2023-06-14T07:07:35;245.00;;;233.30;;
9900;SDS011;4989;48.772;9.154;2023-06-14T07:12:38;213.73;;;203.57;;
9900;SDS011;4989;48.772;9.154;2023-06-14T07:17:41;243.30;;;231.23;;
9900;SDS011;4989;48.772;9.154;2023-06-14T07:22:44;223.80;;;212.87;;
9900;SDS011;4989;48.772;9.154;2023-06-14T07:27:46;191.67;;;182.27;;
9900;SDS011;4989;48.772;9.154;2023-06-14T07:32:48;212.33;;;201.97;;
9900;SDS011;4989;48.772;9.154;2023-06-14T07:37:52;197.40;;;187.63;;
9900;SDS011;4989;48.772;9.154;2023-06-14T07:42:54;207.03;;;196.83;;
9900;SDS011;4989;48.772;9.154;2023-06-14T07:47:56;224.47;;;213.73;;
9900;SDS011;4989;48.772;9.154;2023-06-14T07:52:59;210.77;;;200.57;;
9900;SDS011;4989;48.772;9.154;2023-06-14T07:58:01;213.07;;;202.67;;
9900;SDS011;4989;48.772;9.154;2023-06-14T08:03:07;223.03;;;212.27;;
9900;SDS011;4989;48.772;9.154;2023-06-14T08:08:10;246.73;;;234.47;;
9900;SDS011;4989;48.772;9.154;2023-06-14T08:13:12;236.00;;;224.00;;
9900;SDS011;4989;48.772;9.154;2023-06-14T08:18:14;249.13;;;236.40;;
9900;SDS011;4989;48.772;9.154;2023-06-14T08:23:17;244.80;;;231.97;;
9900;SDS011;4989;48.772;9.154;2023-06-14T08:28:20;258.70;;;245.30;;
9900;SDS011;4989;48.772;9.154;2023-06-14T08:33:22;261.30;;;247.60;;
9900;SDS011;4989;48.772;9.154;2023-06-14T08:38:25;266.90;;;253.03;;
9900;SDS011;4989;48.772;9.154;2023-06-14T08:43:27;245.67;;;233.40;;
9900;SDS011;4989;48.772;9.154;2023-06-14T08:48:30;265.80;;;252.00;;
9900;SDS011;4989;48.772;9.154;2023-06-14T08:53:33;311.70;;;295.20;;
9900;SDS011;4989;48.772;9.154;2023-06-14T08:58:43;345.87;;;326.07;;
9900;SDS011;4989;48.772;9.154;2023-06-14T09:03:47;329.40;;;311.13;;
9900;SDS011;4989;48.772;9.154;2023-06-14T09:08:51;331.65;;;313.00;;
9900;SDS011;4989;48.772;9.154;2023-06-14T09:13:53;332.25;;;313.50;;
9900;SDS011;4989;48.772;9.154;2023-06-14T09:18:56;333.92;;;315.17;;
9900;SDS011;4989;48.772;9.154;2023-06-14T09:24:01;357.27;;;337.02;;
9900;SDS011;4989;48.772;9.154;2023-06-14T09:29:04;335.25;;;316.55;;
9900;SDS011;4989;48.772;9.154;2023-06-14T09:34:08;361.70;;;340.45;;
9900;SDS011;4989;48.772;9.154;2023-06-14T09:39:11;368.55;;;346.60;;
9900;SDS011;4989;48.772;9.154;2023-06-14T09:44:19;347.13;;;326.73;;
9900;SDS011;4989;48.772;9.154;2023-06-14T09:49:23;344.30;;;324.35;;
9900;SDS011;4989;48.772;9.154;2023-06-14T09:54:27;301.33;;;285.02;;
9900;SDS011;4989;48.772;9.154;2023-06-14T09:59:35;382.17;;;359.27;;
9900;SDS011;4989;48.772;9.154;2023-06-14T10:04:38;380.25;;;357.70;;
9900;SDS011;4989;48.772;9.154;2023-06-14T10:09:52;338.90;;;319.15;;
9900;SDS011;4989;48.772;9.154;2023-06-14T10:14:55;353.98;;;333.42;;
9900;SDS011;4989;48.772;9.154;2023-06-14T10:26:06;360.15;;;339.42;;
9900;SDS011;4989;48.772;9.154;2023-06-14T10:31:09;363.88;;;342.70;;
9900;SDS011;4989;48.772;9.154;2023-06-14T10:41:25;438.27;;;409.58;;
9900;SDS011;4989;48.772;9.154;2023-06-14T10:46:30;439.83;;;411.95;;
9900;SDS011;4989;48.772;9.154;2023-06-14T10:51:39;434.98;;;407.60;;
9900;SDS011;4989;48.772;9.154;2023-06-14T10:56:51;466.60;;;435.55;;
9900;SDS011;4989;48.772;9.154;2023-06-14T11:07:35;558.90;;;519.83;;
9900;SDS011;4989;48.772;9.154;2023-06-14T11:12:48;502.13;;;467.92;;
9900;SDS011;4989;48.772;9.154;2023-06-14T11:17:53;395.50;;;370.45;;
9900;SDS011;4989;48.772;9.154;2023-06-14T11:22:59;443.63;;;414.92;;
9900;SDS011;4989;48.772;9.154;2023-06-14T11:28:02;430.90;;;403.50;;
9900;SDS011;4989;48.772;9.154;2023-06-14T11:33:04;418.83;;;392.65;;
9900;SDS011;4989;48.772;9.154;2023-06-14T11:38:12;438.38;;;409.98;;
9900;SDS011;4989;48.772;9.154;2023-06-14T11:43:15;382.75;;;359.20;;
9900;SDS011;4989;48.772;9.154;2023-06-14T11:48:18;373.02;;;350.23;;
9900;SDS011;4989;48.772;9.154;2023-06-14T11:53:21;326.73;;;307.83;;
9900;SDS011;4989;48.772;9.154;2023-06-14T11:58:23;412.13;;;385.65;;
9900;SDS011;4989;48.772;9.154;2023-06-14T12:03:27;350.02;;;329.75;;
9900;SDS011;4989;48.772;9.154;2023-06-14T12:08:34;325.65;;;307.40;;
9900;SDS011;4989;48.772;9.154;2023-06-14T12:13:42;339.27;;;319.67;;
9900;SDS011;4989;48.772;9.154;2023-06-14T12:18:45;337.30;;;317.85;;
9900;SDS011;4989;48.772;9.154;2023-06-14T12:23:47;357.13;;;336.10;;
9900;SDS011;4989;48.772;9.154;2023-06-14T12:28:52;358.60;;;337.40;;
9900;SDS011;4989;48.772;9.154;2023-06-14T12:33:54;360.08;;;338.67;;
9900;SDS011;4989;48.772;9.154;2023-06-14T12:38:57;338.17;;;314.77;;
9900;SDS011;4989;48.772;9.154;2023-06-14T12:43:59;321.90;;;303.83;;
9900;SDS011;4989;48.772;9.154;2023-06-14T12:49:07;306.45;;;289.50;;
9900;SDS011;4989;48.772;9.154;2023-06-14T12:54:11;335.10;;;315.85;;
9900;SDS011;4989;48.772;9.154;2023-06-14T12:59:13;345.83;;;325.40;;
9900;SDS011;4989;48.772;9.154;2023-06-14T13:04:16;349.20;;;328.50;;
9900;SDS011;4989;48.772;9.154;2023-06-14T13:09:18;286.45;;;270.50;;
9900;SDS011;4989;48.772;9.154;2023-06-14T13:14:20;309.23;;;291.67;;
9900;SDS011;4989;48.772;9.154;2023-06-14T13:19:26;318.20;;;300.05;;
9900;SDS011;4989;48.772;9.154;2023-06-14T13:24:29;310.63;;;292.98;;
9900;SDS011;4989;48.772;9.154;2023-06-14T13:29:31;285.17;;;269.52;;
9900;SDS011;4989;48.772;9.154;2023-06-14T13:34:34;302.33;;;285.73;;
9900;SDS011;4989;48.772;9.154;2023-06-14T13:39:37;281.13;;;265.92;;
9900;SDS011;4989;48.772;9.154;2023-06-14T13:44:39;224.25;;;212.60;;
9900;SDS011;4989;48.772;9.154;2023-06-14T13:49:41;313.52;;;295.73;;
9900;SDS011;4989;48.772;9.154;2023-06-14T13:54:44;310.27;;;292.73;;
9900;SDS011;4989;48.772;9.154;2023-06-14T13:59:49;308.63;;;291.15;;
9900;SDS011;4989;48.772;9.154;2023-06-14T14:04:51;261.50;;;247.23;;
9900;SDS011;4989;48.772;9.154;2023-06-14T14:09:55;283.02;;;267.33;;
9900;SDS011;4989;48.772;9.154;2023-06-14T14:14:58;235.63;;;223.38;;
9900;SDS011;4989;48.772;9.154;2023-06-14T14:20:01;258.20;;;244.52;;
9900;SDS011;4989;48.772;9.154;2023-06-14T14:25:03;247.75;;;234.70;;
9900;SDS011;4989;48.772;9.154;2023-06-14T14:30:06;238.40;;;226.02;;
9900;SDS011;4989;48.772;9.154;2023-06-14T14:35:09;205.63;;;195.13;;
9900;SDS011;4989;48.772;9.154;2023-06-14T14:40:13;222.25;;;210.52;;
9900;SDS011;4989;48.772;9.154;2023-06-14T14:45:16;231.40;;;218.75;;
9900;SDS011;4989;48.772;9.154;2023-06-14T14:50:18;172.05;;;163.20;;
9900;SDS011;4989;48.772;9.154;2023-06-14T14:55:20;184.40;;;174.80;;
9900;SDS011;4989;48.772;9.154;2023-06-14T15:00:22;125.38;;;119.25;;
9900;SDS011;4989;48.772;9.154;2023-06-14T15:05:25;98.93;;;93.88;;
9900;SDS011;4989;48.772;9.154;2023-06-14T15:10:27;108.70;;;103.40;;
9900;SDS011;4989;48.772;9.154;2023-06-14T15:15:29;127.15;;;120.80;;
9900;SDS011;4989;48.772;9.154;2023-06-14T15:20:31;107.63;;;102.45;;
9900;SDS011;4989;48.772;9.154;2023-06-14T15:25:34;92.25;;;87.97;;
9900;SDS011;4989;48.772;9.154;2023-06-14T15:30:36;76.82;;;72.88;;
9900;SDS011;4989;48.772;9.154;2023-06-14T15:35:39;89.68;;;85.00;;
9900;SDS011;4989;48.772;9.154;2023-06-14T15:40:42;73.72;;;70.03;;
9900;SDS011;4989;48.772;9.154;2023-06-14T15:45:44;62.25;;;59.10;;
9900;SDS011;4989;48.772;9.154;2023-06-14T15:50:46;73.22;;;69.88;;
9900;SDS011;4989;48.772;9.154;2023-06-14T15:55:48;107.22;;;101.80;;
9900;SDS011;4989;48.772;9.154;2023-06-14T16:00:51;83.50;;;79.50;;
9900;SDS011;4989;48.772;9.154;2023-06-14T16:05:53;75.20;;;71.72;;
9900;SDS011;4989;48.772;9.154;2023-06-14T16:10:55;72.95;;;69.18;;
9900;SDS011;4989;48.772;9.154;2023-06-14T16:15:57;71.30;;;68.05;;
9900;SDS011;4989;48.772;9.154;2023-06-14T16:21:00;67.15;;;64.00;;
9900;SDS011;4989;48.772;9.154;2023-06-14T16:26:03;44.80;;;42.95;;
9900;SDS011;4989;48.772;9.154;2023-06-14T16:31:05;60.58;;;57.72;;
9900;SDS011;4989;48.772;9.154;2023-06-14T16:36:08;53.25;;;50.97;;
9900;SDS011;4989;48.772;9.154;2023-06-14T16:41:10;129.07;;;122.93;;
9900;SDS011;4989;48.772;9.154;2023-06-14T16:46:15;97.20;;;92.68;;
9900;SDS011;4989;48.772;9.154;2023-06-14T16:51:31;69.95;;;66.82;;
9900;SDS011;4989;48.772;9.154;2023-06-14T16:56:33;84.40;;;78.13;;
9900;SDS011;4989;48.772;9.154;2023-06-14T17:01:36;66.50;;;63.60;;
9900;SDS011;4989;48.772;9.154;2023-06-14T17:06:39;54.33;;;51.35;;
9900;SDS011;4989;48.772;9.154;2023-06-14T17:11:41;461.83;;;238.15;;
9900;SDS011;4989;48.772;9.154;2023-06-14T17:16:43;63.83;;;58.90;;
9900;SDS011;4989;48.772;9.154;2023-06-14T17:21:46;50.78;;;48.42;;
9900;SDS011;4989;48.772;9.154;2023-06-14T17:26:51;465.97;;;257.10;;
9900;SDS011;4989;48.772;9.154;2023-06-14T17:31:53;61.60;;;58.67;;
9900;SDS011;4989;48.772;9.154;2023-06-14T17:36:56;47.67;;;44.73;;
9900;SDS011;4989;48.772;9.154;2023-06-14T17:41:58;35.87;;;34.13;;
9900;SDS011;4989;48.772;9.154;2023-06-14T17:47:00;25.97;;;24.73;;
9900;SDS011;4989;48.772;9.154;2023-06-14T17:52:02;37.25;;;35.50;;
9900;SDS011;4989;48.772;9.154;2023-06-14T17:57:05;28.80;;;27.47;;
9900;SDS011;4989;48.772;9.154;2023-06-14T18:02:08;25.93;;;24.37;;
9900;SDS011;4989;48.772;9.154;2023-06-14T18:07:10;21.80;;;20.50;;
9900;SDS011;4989;48.772;9.154;2023-06-14T18:12:12;13.33;;;12.60;;
9900;SDS011;4989;48.772;9.154;2023-06-14T18:17:15;38.80;;;33.50;;
9900;SDS011;4989;48.772;9.154;2023-06-14T18:22:17;25.02;;;23.73;;
9900;SDS011;4989;48.772;9.154;2023-06-14T18:27:20;30.03;;;28.10;;
9900;SDS011;4989;48.772;9.154;2023-06-14T18:32:23;25.67;;;24.23;;
9900;SDS011;4989;48.772;9.154;2023-06-14T18:37:25;39.63;;;37.63;;
9900;SDS011;4989;48.772;9.154;2023-06-14T18:42:27;34.10;;;32.47;;
9900;SDS011;4989;48.772;9.154;2023-06-14T18:47:29;25.50;;;21.33;;
9900;SDS011;4989;48.772;9.154;2023-06-14T18:52:31;21.43;;;19.83;;
9900;SDS011;4989;48.772;9.154;2023-06-14T18:57:34;18.87;;;17.97;;
9900;SDS011;4989;48.772;9.154;2023-06-14T19:02:36;24.60;;;23.43;;
9900;SDS011;4989;48.772;9.154;2023-06-14T19:07:40;15.13;;;13.77;;
9900;SDS011;4989;48.772;9.154;2023-06-14T19:12:42;16.17;;;15.23;;
9900;SDS011;4989;48.772;9.154;2023-06-14T19:17:57;17.70;;;16.77;;
9900;SDS011;4989;48.772;9.154;2023-06-14T19:23:02;13.10;;;12.40;;
9900;SDS011;4989;48.772;9.154;2023-06-14T19:28:06;13.53;;;12.63;;
9900;SDS011;4989;48.772;9.154;2023-06-14T19:33:09;13.97;;;13.17;;
9900;SDS011;4989;48.772;9.154;2023-06-14T19:38:11;14.80;;;14.03;;
9900;SDS011;4989;48.772;9.154;2023-06-14T19:43:14;12.43;;;11.63;;
9900;SDS011;4989;48.772;9.154;2023-06-14T19:48:16;15.23;;;14.47;;
9900;SDS011;4989;48.772;9.154;2023-06-14T19:53:22;17.27;;;16.30;;
9900;SDS011;4989;48.772;9.154;2023-06-14T19:58:24;16.90;;;15.93;;
9900;SDS011;4989;48.772;9.154;2023-06-14T20:03:26;16.63;;;15.63;;
9900;SDS011;4989;48.772;9.154;2023-06-14T20:08:28;57.23;;;27.57;;
9900;SDS011;4989;48.772;9.154;2023-06-14T20:13:32;8.07;;;7.17;;
9900;SDS011;4989;48.772;9.154;2023-06-14T20:18:34;47.90;;;45.60;;
9900;SDS011;4989;48.772;9.154;2023-06-14T20:23:37;29.83;;;28.27;;
9900;SDS011;4989;48.772;9.154;2023-06-14T20:28:39;38.80;;;33.40;;
9900;SDS011;4989;48.772;9.154;2023-06-14T20:33:42;29.73;;;28.17;;
9900;SDS011;4989;48.772;9.154;2023-06-14T20:38:45;23.67;;;22.53;;
9900;SDS011;4989;48.772;9.154;2023-06-14T20:43:48;15.47;;;14.33;;
9900;SDS011;4989;48.772;9.154;2023-06-14T20:48:50;16.30;;;15.40;;
9900;SDS011;4989;48.772;9.154;2023-06-14T20:53:52;14.20;;;13.30;;
9900;SDS011;4989;48.772;9.154;2023-06-14T20:58:55;20.17;;;19.03;;
9900;SDS011;4989;48.772;9.154;2023-06-14T21:03:57;21.50;;;20.03;;
9900;SDS011;4989;48.772;9.154;2023-06-14T21:09:00;13.67;;;12.90;;
9900;SDS011;4989;48.772;9.154;2023-06-14T21:14:02;33.70;;;32.00;;
9900;SDS011;4989;48.772;9.154;2023-06-14T21:19:04;22.73;;;21.53;;
9900;SDS011;4989;48.772;9.154;2023-06-14T21:24:06;25.10;;;23.93;;
9900;SDS011;4989;48.772;9.154;2023-06-14T21:29:10;17.37;;;16.13;;
9900;SDS011;4989;48.772;9.154;2023-06-14T21:34:13;18.30;;;17.33;;
9900;SDS011;4989;48.772;9.154;2023-06-14T21:39:15;12.43;;;11.70;;
9900;SDS011;4989;48.772;9.154;2023-06-14T21:44:17;70.63;;;67.30;;
9900;SDS011;4989;48.772;9.154;2023-06-14T21:49:19;43.50;;;41.37;;
9900;SDS011;4989;48.772;9.154;2023-06-14T21:54:21;28.27;;;26.93;;
9900;SDS011;4989;48.772;9.154;2023-06-14T21:59:23;40.23;;;38.23;;
9900;SDS011;4989;48.772;9.154;2023-06-14T22:04:26;17.27;;;16.27;;
9900;SDS011;4989;48.772;9.154;2023-06-14T22:09:30;24.93;;;23.77;;
9900;SDS011;4989;48.772;9.154;2023-06-14T22:14:34;24.83;;;23.60;;
9900;SDS011;4989;48.772;9.154;2023-06-14T22:19:37;19.47;;;18.53;;
9900;SDS011;4989;48.772;9.154;2023-06-14T22:24:39;13.77;;;12.93;;
9900;SDS011;4989;48.772;9.154;2023-06-14T22:29:42;15.77;;;12.50;;
9900;SDS011;4989;48.772;9.154;2023-06-14T22:34:45;9.80;;;9.20;;
9900;SDS011;4989;48.772;9.154;2023-06-14T22:39:47;9.90;;;7.53;;
9900;SDS011;4989;48.772;9.154;2023-06-14T22:44:49;8.17;;;7.57;;
9900;SDS011;4989;48.772;9.154;2023-06-14T22:49:52;12.50;;;11.80;;
9900;SDS011;4989;48.772;9.154;2023-06-14T22:55:10;29.67;;;28.33;;
9900;SDS011;4989;48.772;9.154;2023-06-14T23:00:13;37.50;;;35.67;;
9900;SDS011;4989;48.772;9.154;2023-06-14T23:05:16;24.17;;;22.77;;
9900;SDS011;4989;48.772;9.154;2023-06-14T23:10:19;21.57;;;20.43;;
9900;SDS011;4989;48.772;9.154;2023-06-14T23:15:24;18.00;;;17.00;;
9900;SDS011;4989;48.772;9.154;2023-06-14T23:20:26;18.57;;;17.33;;
9900;SDS011;4989;48.772;9.154;2023-06-14T23:25:30;15.43;;;14.63;;
9900;SDS011;4989;48.772;9.154;2023-06-14T23:30:36;7.70;;;7.27;;
9900;SDS011;4989;48.772;9.154;2023-06-14T23:35:38;9.50;;;8.90;;
9900;SDS011;4989;48.772;9.154;2023-06-14T23:40:45;9.17;;;8.50;;
9900;SDS011;4989;48.772;9.154;2023-06-14T23:45:47;8.60;;;8.10;;
9900;SDS011;4989;48.772;9.154;2023-06-14T23:50:54;8.17;;;7.67;;
9900;SDS011;4989;48.772;9.154;2023-06-14T23:55:58;12.67;;;11.87;;
